Terminal Aerodrome Forecast
Issued by NWS Central Illinois

Home | Current Version | Previous Version | Text Only | Print | Product List | Glossary On
Versions: 1 2 3 4 5 6 7 8 9 10 11 12 13 14 15 16 17
641
FTUS43 KILX 112345
TAFSPI
TAF
KSPI 112345Z 1200/1224 VRB03KT P6SM OVC080
     FM120300 VRB04KT 4SM -SN OVC030
     FM120400 20005KT 1 1/2SM -SN BR OVC012
     FM121200 27007KT P6SM OVC012
     FM121500 29012G17KT P6SM BKN020
     FM121800 31016G25KT P6SM SCT020=

USA.gov is the U.S. government's official web portal to all federal, state and local government web resources and services.